Time;durP1;ratioP1;P1;durP2;ratioP2;P2;SDS_P1;SDS_P2;PMS_P1;PMS_P2;Temp;Humidity;BMP_temperature;BMP_pressure;BME280_temperature;BME280_humidity;BME280_pressure;Samples;Min_cycle;Max_cycle;Signal;HPM_P1;HPM_P2
2021/09/19 00:01:50;;;;;;;;;5.67;5.67;;;;;24.96;45.90;100709.00;146605;609;46010;-76
2021/09/19 00:04:24;;;;;;;;;5.67;4.00;;;;;24.91;45.15;100707.28;146606;587;47008;-75
2021/09/19 00:06:58;;;;;;;;;7.00;6.00;;;;;24.88;45.32;100703.75;146603;580;46018;-73
2021/09/19 00:09:32;;;;;;;;;9.00;3.67;;;;;24.87;45.50;100694.03;146606;606;46008;-77
2021/09/19 00:12:06;;;;;;;;;5.25;4.00;;;;;24.84;45.08;100694.06;146603;682;46019;-76
2021/09/19 00:14:44;;;;;;;;;9.00;4.75;;;;;24.84;44.91;100698.50;146605;612;46018;-78
2021/09/19 00:17:18;;;;;;;;;4.33;4.33;;;;;24.83;45.65;100694.97;146606;578;46019;-76
2021/09/19 00:19:54;;;;;;;;;8.67;6.00;;;;;24.78;45.13;100686.16;146608;570;46020;-77
2021/09/19 00:22:28;;;;;;;;;4.67;3.67;;;;;24.77;45.03;100691.47;146606;594;47010;-75
2021/09/19 00:25:02;;;;;;;;;7.67;5.33;;;;;24.80;45.08;100686.16;146608;639;46009;-73
2021/09/19 00:27:36;;;;;;;;;6.75;5.00;;;;;24.83;44.98;100681.69;146605;575;46018;-70
2021/09/19 00:30:12;;;;;;;;;8.33;5.67;;;;;24.85;44.86;100682.56;146607;580;46018;-70
2021/09/19 00:32:46;;;;;;;;;6.00;4.33;;;;;24.89;44.61;100681.66;146606;640;47011;-70
2021/09/19 00:35:20;;;;;;;;;6.33;4.00;;;;;24.92;44.65;100680.72;146607;634;46018;-71
2021/09/19 00:37:54;;;;;;;;;7.33;5.67;;;;;24.94;44.87;100686.03;146608;566;46010;-71
2021/09/19 00:40:33;;;;;;;;;5.00;5.00;;;;;24.91;45.45;100692.22;146605;604;46018;-72
2021/09/19 00:43:07;;;;;;;;;7.33;5.00;;;;;24.80;45.63;100692.34;146606;575;47010;-70
2021/09/19 00:45:41;;;;;;;;;7.67;4.67;;;;;24.73;45.42;100692.38;146610;586;46018;-73
2021/09/19 00:48:15;;;;;;;;;8.00;7.25;;;;;24.66;46.35;100683.59;146605;629;46019;-73
2021/09/19 00:50:49;;;;;;;;;7.00;5.67;;;;;24.60;46.03;100695.13;146608;619;46018;-74
2021/09/19 00:53:25;;;;;;;;;6.33;4.67;;;;;24.57;45.15;100695.13;146606;607;47910;-73
2021/09/19 00:56:01;;;;;;;;;5.33;5.33;;;;;24.56;45.63;100697.81;146608;572;46019;-73
2021/09/19 00:58:36;;;;;;;;;5.67;5.67;;;;;24.55;45.22;100704.87;146606;636;47010;-73
2021/09/19 01:01:10;;;;;;;;;5.00;5.00;;;;;24.60;45.45;100715.44;146608;603;46018;-73
2021/09/19 01:03:44;;;;;;;;;5.00;5.00;;;;;24.63;46.05;100726.03;146608;600;45910;-70
2021/09/19 01:06:19;;;;;;;;;7.00;6.00;;;;;24.64;46.81;100725.13;146609;570;46008;-71
2021/09/19 01:08:54;;;;;;;;;8.00;5.67;;;;;24.57;46.75;100726.06;146601;586;46018;-70
2021/09/19 01:11:28;;;;;;;;;9.33;5.67;;;;;24.50;47.66;100727.00;146608;618;47008;-72
2021/09/19 01:14:04;;;;;;;;;8.67;6.67;;;;;24.41;47.54;100722.59;146604;563;47921;-74
2021/09/19 01:17:18;;;;;;;;;5.00;4.00;;;;;24.33;45.77;100724.41;146607;596;46024;-72
2021/09/19 01:19:57;;;;;;;;;5.00;5.00;;;;;24.27;47.28;100724.44;146605;591;47010;-71
2021/09/19 01:22:39;;;;;;;;;8.33;5.33;;;;;24.25;47.85;100729.75;146608;655;46018;-72
2021/09/19 01:25:17;;;;;;;;;6.00;5.00;;;;;24.15;48.50;100731.56;146604;565;46020;-72
2021/09/19 01:27:57;;;;;;;;;7.00;5.33;;;;;24.09;46.75;100730.72;146607;584;46018;-73
2021/09/19 01:30:31;;;;;;;;;7.00;7.00;;;;;24.07;48.96;100721.87;146603;596;47910;-73
2021/09/19 01:33:09;;;;;;;;;7.67;6.00;;;;;24.02;48.88;100713.97;146608;591;46019;-72
2021/09/19 01:35:43;;;;;;;;;7.00;5.00;;;;;23.94;48.39;100700.75;146606;572;47010;-72
2021/09/19 01:38:20;;;;;;;;;7.00;5.33;;;;;23.91;48.16;100695.47;146609;563;46018;-72
2021/09/19 01:41:04;;;;;;;;;5.67;5.67;;;;;23.92;47.48;100691.91;146603;593;46019;-71
2021/09/19 01:43:38;;;;;;;;;6.67;5.33;;;;;23.97;47.35;100699.84;146607;588;47008;-71
2021/09/19 01:46:12;;;;;;;;;6.33;5.67;;;;;24.02;47.16;100694.53;146606;646;46018;-72
2021/09/19 01:48:46;;;;;;;;;8.67;6.33;;;;;24.10;47.09;100705.97;146608;647;46018;-72
2021/09/19 01:51:20;;;;;;;;;4.67;4.33;;;;;23.56;46.78;100602.91;146606;618;46931;-70
2021/09/19 01:53:55;;;;;;;;;5.67;5.33;;;;;24.19;47.02;100711.22;146610;605;46025;-71
2021/09/19 01:56:30;;;;;;;;;7.67;4.67;;;;;24.20;46.31;100710.34;146606;563;46018;-70
2021/09/19 01:59:04;;;;;;;;;6.33;4.33;;;;;24.20;45.81;100720.94;146610;608;45018;-70
2021/09/19 02:01:38;;;;;;;;;6.33;5.33;;;;;24.22;45.64;100720.94;146606;581;46019;-69
2021/09/19 02:04:12;;;;;;;;;5.67;5.00;;;;;23.83;45.44;100646.97;146608;570;46025;-70
2021/09/19 02:06:46;;;;;;;;;5.00;5.00;;;;;24.29;45.10;100715.59;146606;649;46018;-71
2021/09/19 02:09:20;;;;;;;;;6.33;4.00;;;;;24.34;45.09;100713.81;146611;574;46008;-71
2021/09/19 02:11:54;;;;;;;;;5.67;4.67;;;;;24.42;44.75;100706.75;146605;597;46018;-71
2021/09/19 02:14:27;;;;;;;;;4.00;4.00;;;;;24.50;44.61;100711.97;146606;601;47006;-72
2021/09/19 02:17:01;;;;;;;;;5.33;3.33;;;;;24.55;44.86;100718.13;146604;590;47020;-74
2021/09/19 02:19:35;;;;;;;;;4.67;4.00;;;;;24.56;44.44;100717.25;146610;599;46025;-74
2021/09/19 02:26:03;;;;;;;;;4.00;4.00;;;;;24.61;43.95;100717.19;146609;579;47018;-74
2021/09/19 02:28:37;;;;;;;;;7.00;4.00;;;;;24.63;45.33;100721.59;146605;643;47910;-73
2021/09/19 02:31:11;;;;;;;;;8.00;4.67;;;;;24.62;45.46;100714.56;146608;645;47008;-72
2021/09/19 02:33:49;;;;;;;;;7.33;5.33;;;;;24.59;46.13;100714.56;146606;601;46018;-73
2021/09/19 02:36:23;;;;;;;;;6.00;4.67;;;;;24.58;45.08;100717.22;146605;595;47012;-72
2021/09/19 02:38:57;;;;;;;;;3.67;3.67;;;;;24.57;45.23;100719.00;146607;630;47010;-70
2021/09/19 02:41:30;;;;;;;;;4.00;2.00;;;;;24.62;44.89;100716.31;146606;597;47008;-70
2021/09/19 02:44:04;;;;;;;;;3.67;3.67;;;;;24.70;45.04;100717.12;146606;624;47010;-71
2021/09/19 02:46:38;;;;;;;;;6.00;4.67;;;;;24.77;45.31;100710.03;146609;606;46019;-72
2021/09/19 02:49:12;;;;;;;;;2.67;2.00;;;;;24.77;44.37;100704.75;146603;574;46018;-70
2021/09/19 02:51:46;;;;;;;;;3.67;2.00;;;;;24.79;44.59;100700.28;146611;580;46008;-71
2021/09/19 02:54:20;;;;;;;;;6.67;5.00;;;;;24.84;44.19;100702.03;146607;587;47011;-72
2021/09/19 02:56:56;;;;;;;;;4.33;4.00;;;;;24.89;43.84;100702.88;146609;560;46018;-74
2021/09/19 02:59:30;;;;;;;;;4.33;3.33;;;;;24.95;44.71;100695.75;146608;563;46020;-73
2021/09/19 03:02:06;;;;;;;;;5.67;2.67;;;;;24.97;43.96;100689.53;146608;596;47008;-72
2021/09/19 03:04:47;;;;;;;;;3.67;3.67;;;;;25.02;43.68;100694.81;146603;577;46018;-72
2021/09/19 03:07:20;;;;;;;;;5.33;3.33;;;;;25.07;44.18;100701.81;146607;632;46018;-74
2021/09/19 03:09:55;;;;;;;;;4.67;3.67;;;;;25.10;44.06;100699.13;146608;589;46010;-74
2021/09/19 03:12:28;;;;;;;;;6.00;5.00;;;;;25.15;43.97;100693.84;146609;563;46018;-74
2021/09/19 03:15:02;;;;;;;;;6.33;3.33;;;;;25.20;43.74;100707.06;146606;616;46018;-74
2021/09/19 03:17:36;;;;;;;;;7.33;5.33;;;;;25.22;43.83;100711.44;146607;595;47012;-74
2021/09/19 03:20:16;;;;;;;;;3.67;3.33;;;;;25.23;43.67;100718.50;146606;563;46022;-74
2021/09/19 03:23:41;;;;;;;;;8.00;5.33;;;;;25.23;44.00;100713.19;146610;587;46008;-74
2021/09/19 03:26:47;;;;;;;;;9.00;3.33;;;;;25.12;44.00;100691.19;146606;644;46018;-76
2021/09/19 03:29:21;;;;;;;;;7.00;5.00;;;;;24.99;44.58;100676.28;146608;565;46008;-76
2021/09/19 03:32:20;;;;;;;;;7.00;5.33;;;;;24.89;43.79;100673.69;146607;593;46010;-76
2021/09/19 03:34:54;;;;;;;;;8.33;5.33;;;;;24.85;44.84;100682.56;146605;569;46018;-75
2021/09/19 03:37:31;;;;;;;;;4.33;4.33;;;;;24.80;45.14;100681.72;146601;570;47020;-76
2021/09/19 03:40:05;;;;;;;;;6.33;5.00;;;;;24.80;45.25;100694.13;146611;664;46027;-76
2021/09/19 03:42:39;;;;;;;;;5.33;5.33;;;;;24.80;45.13;100702.94;146606;657;47910;-73
2021/09/19 03:45:15;;;;;;;;;9.33;5.33;;;;;24.80;45.27;100712.69;146609;577;47008;-74
2021/09/19 03:47:51;;;;;;;;;6.00;3.33;;;;;24.81;44.58;100720.59;146606;605;46018;-73
2021/09/19 03:50:24;;;;;;;;;7.33;6.33;;;;;24.84;46.17;100730.31;146608;685;47008;-72
2021/09/19 03:52:59;;;;;;;;;8.67;5.33;;;;;24.81;45.89;100733.88;146608;633;46010;-73
2021/09/19 03:55:32;;;;;;;;;7.00;5.67;;;;;24.73;46.18;100743.62;146610;635;46018;-73
2021/09/19 03:58:06;;;;;;;;;5.33;5.33;;;;;24.62;45.59;100742.84;146604;569;46018;-75
2021/09/19 04:00:40;;;;;;;;;10.67;7.33;;;;;24.57;47.55;100753.44;146607;588;46019;-73
2021/09/19 04:03:14;;;;;;;;;7.67;6.00;;;;;24.58;50.08;100752.59;146605;593;46018;-74
2021/09/19 04:05:48;;;;;;;;;8.25;7.25;;;;;24.59;51.26;100746.38;146606;564;46018;-72
2021/09/19 04:08:22;;;;;;;;;8.00;6.00;;;;;24.60;53.49;100748.13;146607;607;46010;-73
2021/09/19 04:10:56;;;;;;;;;8.00;7.00;;;;;24.63;52.48;100748.13;146607;569;46018;-73
2021/09/19 04:13:30;;;;;;;;;10.00;7.50;;;;;24.62;52.98;100740.19;146603;644;47011;-74
2021/09/19 04:16:04;;;;;;;;;7.67;6.67;;;;;24.60;52.52;100739.31;146606;579;46019;-75
2021/09/19 04:18:38;;;;;;;;;8.67;7.00;;;;;24.58;51.64;100735.78;146606;583;47022;-73
2021/09/19 04:21:12;;;;;;;;;9.67;8.00;;;;;24.57;50.89;100739.31;146609;670;46018;-71
2021/09/19 04:23:46;;;;;;;;;9.25;6.25;;;;;24.57;51.00;100741.97;146605;571;46010;-73
2021/09/19 04:26:19;;;;;;;;;8.00;6.00;;;;;24.57;49.11;100736.66;146607;589;46018;-73
2021/09/19 04:28:53;;;;;;;;;8.33;6.33;;;;;24.60;47.27;100742.84;146607;631;46011;-72
2021/09/19 04:31:27;;;;;;;;;6.00;6.00;;;;;24.64;46.46;100733.09;146607;730;46008;-71
2021/09/19 04:34:01;;;;;;;;;7.67;6.33;;;;;24.68;45.92;100729.53;146605;647;46018;-73
2021/09/19 04:36:35;;;;;;;;;7.67;4.67;;;;;24.74;45.29;100739.22;146607;574;47008;-73
2021/09/19 04:39:09;;;;;;;;;5.67;4.67;;;;;24.77;45.71;100744.53;146604;569;46018;-73
2021/09/19 04:41:43;;;;;;;;;6.00;6.00;;;;;24.80;45.44;100750.69;146609;577;46010;-73
2021/09/19 04:44:17;;;;;;;;;6.00;4.67;;;;;24.87;45.70;100754.16;146607;660;46018;-73
2021/09/19 04:46:50;;;;;;;;;6.33;4.33;;;;;24.90;45.01;100746.19;146607;606;46018;-73
2021/09/19 04:49:24;;;;;;;;;7.00;6.33;;;;;25.00;44.90;100758.47;146606;633;46018;-73
2021/09/19 04:51:58;;;;;;;;;5.75;4.75;;;;;25.08;45.43;100759.31;146604;586;46019;-76
2021/09/19 04:54:32;;;;;;;;;5.33;4.00;;;;;25.14;45.39;100753.13;146604;575;46018;-74
2021/09/19 04:57:07;;;;;;;;;5.33;4.00;;;;;25.17;45.34;100758.41;146611;610;46010;-75
2021/09/19 04:59:41;;;;;;;;;6.67;5.33;;;;;25.17;45.27;100771.66;146608;607;46010;-75
2021/09/19 05:02:15;;;;;;;;;7.33;5.00;;;;;25.17;45.50;100762.81;146610;631;46008;-74
2021/09/19 05:04:49;;;;;;;;;6.00;5.00;;;;;25.15;45.66;100760.19;146604;591;47910;-74
2021/09/19 05:07:23;;;;;;;;;6.67;6.67;;;;;25.10;44.99;100751.31;146611;591;46010;-74
2021/09/19 05:09:57;;;;;;;;;7.67;7.67;;;;;25.24;45.81;100749.47;146606;637;46018;-73
2021/09/19 05:12:31;;;;;;;;;7.67;3.00;;;;;25.58;45.34;100757.12;146607;599;47008;-73
2021/09/19 05:15:05;;;;;;;;;6.67;4.00;;;;;26.00;44.72;100755.81;146606;566;46018;-73
2021/09/19 05:17:39;;;;;;;;;5.00;4.67;;;;;26.39;44.10;100761.53;146607;580;47008;-75
2021/09/19 05:20:16;;;;;;;;;7.00;5.33;;;;;26.73;43.94;100766.44;146607;592;46010;-73
2021/09/19 05:22:50;;;;;;;;;8.00;5.00;;;;;26.92;43.77;100767.03;146607;567;46018;-73
2021/09/19 05:25:24;;;;;;;;;6.33;4.67;;;;;26.99;43.41;100771.34;146608;572;45910;-73
2021/09/19 05:27:57;;;;;;;;;12.67;6.33;;;;;26.96;43.43;100771.38;146610;624;46008;-72
2021/09/19 05:30:31;;;;;;;;;7.00;7.00;;;;;26.85;43.12;100776.84;146605;573;46018;-72
2021/09/19 05:33:05;;;;;;;;;5.67;5.00;;;;;26.76;43.17;100784.09;146606;587;46010;-70
2021/09/19 05:35:39;;;;;;;;;6.33;5.67;;;;;26.63;43.33;100789.59;146608;631;45910;-72
2021/09/19 05:38:13;;;;;;;;;13.75;8.25;;;;;26.54;43.84;100784.38;146608;611;46009;-72
2021/09/19 05:40:47;;;;;;;;;9.67;8.67;;;;;26.45;44.03;100784.50;146605;581;46018;-71
2021/09/19 05:43:22;;;;;;;;;8.33;8.33;;;;;26.41;43.71;100793.41;146606;577;47006;-70
2021/09/19 05:45:56;;;;;;;;;12.00;6.67;;;;;26.52;43.85;100826.09;146606;628;47910;-70
2021/09/19 05:48:30;;;;;;;;;9.00;6.00;;;;;26.79;43.87;100845.25;146608;571;46018;-71
2021/09/19 05:51:04;;;;;;;;;10.33;6.00;;;;;27.12;43.29;100858.06;146608;639;47010;-71
2021/09/19 05:53:43;;;;;;;;;7.67;6.00;;;;;27.47;42.58;100846.00;146606;579;46018;-69
2021/09/19 05:56:17;;;;;;;;;8.33;8.00;;;;;27.78;42.17;100849.06;146606;633;46018;-69
2021/09/19 05:58:50;;;;;;;;;7.00;6.00;;;;;28.03;41.41;100838.81;146611;618;46008;-69
2021/09/19 06:01:24;;;;;;;;;8.00;6.67;;;;;28.28;40.98;100841.03;146604;621;46018;-71
2021/09/19 06:03:58;;;;;;;;;7.67;7.00;;;;;28.54;40.57;100835.22;146609;617;46008;-69
2021/09/19 06:06:32;;;;;;;;;7.00;7.00;;;;;28.76;39.96;100800.94;146605;645;47910;-71
2021/09/19 06:09:06;;;;;;;;;6.67;5.00;;;;;29.00;39.75;100770.09;146605;609;46018;-71
2021/09/19 06:11:41;;;;;;;;;10.33;5.00;;;;;29.11;38.81;100765.41;146605;591;47011;-71
2021/09/19 06:14:15;;;;;;;;;7.00;6.00;;;;;29.23;38.12;100783.81;146608;643;47008;-71
2021/09/19 06:16:49;;;;;;;;;10.00;7.00;;;;;29.35;38.02;100787.97;146605;586;46018;-71
2021/09/19 06:19:23;;;;;;;;;6.67;5.33;;;;;29.34;38.31;100780.84;146607;647;46019;-68
2021/09/19 06:21:59;;;;;;;;;8.33;8.00;;;;;29.32;39.09;100788.03;146606;586;46010;-71
2021/09/19 06:24:34;;;;;;;;;10.00;7.67;;;;;29.31;38.89;100785.41;146610;587;46008;-72
2021/09/19 06:27:08;;;;;;;;;10.33;7.33;;;;;29.19;38.77;100782.13;146606;640;47010;-73
2021/09/19 06:29:45;;;;;;;;;9.33;6.00;;;;;29.08;38.93;100777.97;146608;582;46916;-73
2021/09/19 06:32:19;;;;;;;;;10.33;7.67;;;;;28.98;38.98;100772.81;146604;575;47010;-72
2021/09/19 06:34:53;;;;;;;;;11.00;9.00;;;;;28.90;39.17;100771.25;146606;640;47008;-73
2021/09/19 06:37:27;;;;;;;;;10.00;7.00;;;;;28.87;39.35;100768.63;146606;579;46018;-73
2021/09/19 06:40:00;;;;;;;;;6.50;5.75;;;;;28.88;39.40;100781.97;146609;684;46008;-73
2021/09/19 06:42:34;;;;;;;;;10.50;7.50;;;;;29.06;39.02;100793.13;146604;588;47010;-73
2021/09/19 06:45:08;;;;;;;;;9.67;7.67;;;;;29.25;38.85;100789.09;146606;676;47008;-73
2021/09/19 06:47:43;;;;;;;;;15.00;9.00;;;;;29.37;38.41;100796.78;146607;633;46010;-71
2021/09/19 06:50:17;;;;;;;;;4.00;3.00;;;;;29.44;38.81;100801.09;146609;628;46019;-72
2021/09/19 06:52:51;;;;;;;;;10.00;8.50;;;;;29.52;38.60;100790.19;146606;619;46010;-71
2021/09/19 06:55:25;;;;;;;;;14.00;10.75;;;;;29.59;39.21;100790.91;146608;571;46018;-72
2021/09/19 06:58:00;;;;;;;;;11.50;8.00;;;;;29.66;38.76;100790.75;146606;587;47010;-72
2021/09/19 07:00:34;;;;;;;;;9.33;7.00;;;;;29.82;38.60;100803.69;146607;571;46018;-72
2021/09/19 07:03:08;;;;;;;;;6.67;5.00;;;;;30.06;38.44;100813.72;146606;575;47010;-71
2021/09/19 07:05:42;;;;;;;;;8.00;8.00;;;;;30.34;37.92;100803.16;146609;625;46019;-72
2021/09/19 07:08:19;;;;;;;;;13.00;7.67;;;;;30.68;37.20;100812.81;146602;583;47010;-75
2021/09/19 07:10:53;;;;;;;;;12.00;8.00;;;;;30.96;35.91;100810.16;146609;579;46008;-72
2021/09/19 07:13:27;;;;;;;;;10.00;7.00;;;;;31.20;35.61;100799.59;146605;570;46018;-73
2021/09/19 07:16:01;;;;;;;;;7.67;6.33;;;;;31.42;35.30;100794.44;146609;582;47010;-72
2021/09/19 07:18:35;;;;;;;;;6.00;5.00;;;;;31.63;34.88;100793.69;146606;581;46019;-72
2021/09/19 07:21:09;;;;;;;;;8.00;6.33;;;;;31.84;34.16;100801.88;146610;590;46010;-72
2021/09/19 07:23:43;;;;;;;;;7.33;6.00;;;;;32.02;34.48;100798.56;146606;588;46018;-71
2021/09/19 07:26:16;;;;;;;;;6.00;3.67;;;;;32.16;33.89;100796.28;146608;586;46008;-71
2021/09/19 07:28:51;;;;;;;;;7.67;6.67;;;;;32.28;34.46;100803.00;146607;584;46010;-73
2021/09/19 07:31:25;;;;;;;;;5.67;5.67;;;;;32.41;32.38;100803.41;146608;621;47008;-71
2021/09/19 07:33:59;;;;;;;;;5.33;5.00;;;;;32.54;34.86;100820.81;146603;599;47022;-68
2021/09/19 07:36:39;;;;;;;;;9.67;5.33;;;;;32.65;34.35;100829.34;146609;613;46020;-71
2021/09/19 07:39:14;;;;;;;;;8.00;4.67;;;;;32.80;34.48;100826.97;146605;654;46018;-71
2021/09/19 07:41:53;;;;;;;;;54.50;44.00;;;;;32.93;33.17;100827.34;146605;565;47008;-69
2021/09/19 07:44:27;;;;;;;;;152.67;132.67;;;;;33.02;34.88;100827.00;146605;644;47010;-69
2021/09/19 07:47:01;;;;;;;;;418.75;350.25;;;;;32.97;35.25;100845.12;146609;578;47008;-69
2021/09/19 07:49:36;;;;;;;;;10.75;10.25;;;;;32.85;34.85;100836.59;146609;587;47010;-69
2021/09/19 07:52:15;;;;;;;;;49.75;39.00;;;;;32.82;35.44;100833.16;146602;608;47008;-69
2021/09/19 07:54:54;;;;;;;;;451.20;358.60;;;;;32.83;35.49;100822.34;146602;571;46019;-69
2021/09/19 07:57:29;;;;;;;;;284.00;238.25;;;;;32.88;35.94;100820.37;146611;599;47011;-69
2021/09/19 08:00:03;;;;;;;;;193.00;162.50;;;;;32.99;35.78;100821.78;146610;711;46018;-69
2021/09/19 08:02:36;;;;;;;;;11.50;7.50;;;;;33.06;35.77;100824.16;146610;639;47013;-70
2021/09/19 08:05:11;;;;;;;;;10.50;10.50;;;;;33.01;37.73;100814.53;146605;565;47010;-69
2021/09/19 08:07:46;;;;;;;;;8.33;7.00;;;;;32.90;36.92;100809.56;146605;582;47018;-69
2021/09/19 08:10:20;;;;;;;;;10.00;8.33;;;;;32.79;36.34;100818.03;146606;630;46018;-70
2021/09/19 08:12:54;;;;;;;;;11.75;11.75;;;;;32.80;35.44;100821.59;146606;696;46018;-70
2021/09/19 08:15:31;;;;;;;;;9.50;9.50;;;;;32.95;35.77;100822.81;146603;691;46020;-69
2021/09/19 08:18:05;;;;;;;;;12.00;11.75;;;;;33.14;34.92;100810.41;146605;667;46011;-69
2021/09/19 08:20:39;;;;;;;;;13.00;11.50;;;;;33.14;34.62;100809.53;146605;580;47010;-71
2021/09/19 08:23:14;;;;;;;;;18.75;11.50;;;;;33.07;34.65;100814.28;146608;665;46018;-69
2021/09/19 08:25:48;;;;;;;;;5.00;3.33;;;;;33.13;32.70;100810.47;146604;676;47910;-70
2021/09/19 08:28:22;;;;;;;;;24.75;18.75;;;;;33.27;33.48;100813.44;146607;601;47010;-70
2021/09/19 08:30:56;;;;;;;;;20.00;17.25;;;;;33.46;32.87;100813.53;146605;569;46010;-71
2021/09/19 08:33:29;;;;;;;;;20.00;15.00;;;;;33.57;33.02;100817.56;146605;730;47010;-71
2021/09/19 08:36:03;;;;;;;;;11.25;7.75;;;;;33.63;32.27;100820.94;146604;650;46021;-71
2021/09/19 08:38:37;;;;;;;;;12.00;8.33;;;;;33.62;32.00;100808.44;146607;617;46018;-70
2021/09/19 08:41:11;;;;;;;;;9.75;7.50;;;;;33.51;32.99;100815.12;146604;585;46019;-70
2021/09/19 08:43:47;;;;;;;;;7.25;7.25;;;;;33.35;35.85;100822.94;146605;602;46010;-70
2021/09/19 08:46:27;;;;;;;;;8.25;7.75;;;;;33.17;37.56;100820.16;146604;573;46010;-69
2021/09/19 08:49:01;;;;;;;;;9.25;7.50;;;;;32.97;39.18;100816.47;146606;586;46018;-69
2021/09/19 08:51:35;;;;;;;;;6.00;5.00;;;;;32.73;38.94;100809.34;146604;572;46931;-69
2021/09/19 08:54:09;;;;;;;;;11.00;8.25;;;;;32.44;41.02;100816.75;146609;627;46022;-69
2021/09/19 08:56:43;;;;;;;;;13.50;10.75;;;;;32.27;41.32;100811.97;146603;615;46019;-69
2021/09/19 08:59:17;;;;;;;;;12.25;11.00;;;;;32.35;40.05;100803.63;146607;624;46018;-69
2021/09/19 09:02:07;;;;;;;;;9.33;7.00;;;;;32.50;39.86;100813.81;146606;570;46018;-69
2021/09/19 09:04:43;;;;;;;;;7.50;4.50;;;;;32.45;40.50;100818.47;146606;597;46012;-70
2021/09/19 09:07:18;;;;;;;;;7.67;6.33;;;;;32.30;40.79;100822.56;146605;661;47010;-69
2021/09/19 09:10:01;;;;;;;;;11.50;8.00;;;;;32.15;40.61;100818.69;146609;653;46008;-70
2021/09/19 09:12:35;;;;;;;;;11.00;7.00;;;;;32.03;43.26;100837.03;146605;597;47010;-70
2021/09/19 09:15:10;;;;;;;;;7.33;6.00;;;;;31.85;44.03;100838.53;146605;607;46018;-69
2021/09/19 09:17:44;;;;;;;;;8.50;8.25;;;;;31.72;43.91;100851.47;146606;571;47010;-69
2021/09/19 09:20:18;;;;;;;;;12.00;9.50;;;;;31.58;44.05;100865.34;146607;641;46018;-69
2021/09/19 09:22:52;;;;;;;;;11.75;8.00;;;;;31.43;45.11;100855.13;146603;650;46018;-69
2021/09/19 09:25:26;;;;;;;;;6.75;5.50;;;;;31.27;43.88;100846.69;146607;578;46019;-70
2021/09/19 09:28:00;;;;;;;;;10.00;9.50;;;;;31.13;45.37;100832.88;146606;701;46010;-69
2021/09/19 09:30:33;;;;;;;;;11.50;8.00;;;;;31.01;43.97;100815.41;146609;564;46010;-69
2021/09/19 09:33:09;;;;;;;;;9.00;7.00;;;;;30.93;44.64;100809.41;146607;611;46018;-69
2021/09/19 09:35:44;;;;;;;;;9.75;8.50;;;;;30.86;44.28;100806.03;146609;713;46008;-69
2021/09/19 09:38:27;;;;;;;;;9.00;8.75;;;;;30.83;42.85;100796.31;146606;578;46010;-69
2021/09/19 09:41:02;;;;;;;;;10.50;8.00;;;;;30.86;43.14;100778.41;146607;627;46018;-69
2021/09/19 09:43:37;;;;;;;;;8.75;6.25;;;;;30.96;43.06;100788.75;146603;577;47020;-70
2021/09/19 09:46:14;;;;;;;;;12.25;7.25;;;;;31.15;41.57;100777.44;146608;587;46018;-69
2021/09/19 09:48:48;;;;;;;;;10.50;7.75;;;;;31.41;42.76;100766.78;146604;730;46019;-69
2021/09/19 09:51:26;;;;;;;;;8.00;7.00;;;;;31.64;43.82;100779.34;146608;670;46025;-70
2021/09/19 09:54:04;;;;;;;;;9.33;7.67;;;;;31.83;41.92;100786.75;146604;585;46019;-69
2021/09/19 09:56:39;;;;;;;;;11.00;10.00;;;;;31.88;40.96;100801.75;146604;688;46018;-69
2021/09/19 09:59:16;;;;;;;;;6.33;5.00;;;;;31.86;41.38;100792.87;146605;595;46010;-70
2021/09/19 10:01:50;;;;;;;;;9.00;8.00;;;;;31.72;41.76;100801.41;146610;580;46008;-70
2021/09/19 10:04:24;;;;;;;;;11.00;9.00;;;;;31.54;41.78;100807.41;146604;610;47010;-69
2021/09/19 10:06:58;;;;;;;;;9.00;7.00;;;;;31.41;42.21;100788.22;146608;584;46018;-70
2021/09/19 10:09:32;;;;;;;;;10.67;9.67;;;;;31.34;42.52;100785.78;146603;636;47012;-70
2021/09/19 10:12:07;;;;;;;;;8.33;6.00;;;;;31.23;43.34;100789.66;146607;639;46018;-69
2021/09/19 10:14:41;;;;;;;;;10.33;8.00;;;;;31.12;43.28;100791.81;146604;609;46018;-69
2021/09/19 10:17:15;;;;;;;;;10.67;8.33;;;;;31.05;43.57;100790.25;146606;567;46027;-68
2021/09/19 10:19:49;;;;;;;;;12.00;8.67;;;;;31.03;43.03;100776.06;146605;608;47010;-69
2021/09/19 10:22:37;;;;;;;;;8.00;8.00;;;;;31.07;43.37;100764.31;146610;607;46010;-69
2021/09/19 10:25:13;;;;;;;;;10.67;9.33;;;;;30.73;41.67;100669.00;146603;572;46019;-69
2021/09/19 10:27:48;;;;;;;;;8.00;5.67;;;;;31.52;39.74;100753.84;146606;586;47008;-71
2021/09/19 10:30:22;;;;;;;;;7.33;7.00;;;;;31.83;38.45;100751.87;146605;591;46018;-69
2021/09/19 10:33:00;;;;;;;;;7.67;6.33;;;;;32.09;38.03;100746.47;146601;610;48019;-69
2021/09/19 10:35:34;;;;;;;;;9.33;6.00;;;;;32.31;36.74;100745.66;146604;575;46018;-69
2021/09/19 10:38:09;;;;;;;;;9.00;6.00;;;;;32.52;35.54;100743.97;146609;620;46018;-67
2021/09/19 10:40:46;;;;;;;;;6.67;5.67;;;;;32.67;34.25;100746.91;146604;649;46019;-72
2021/09/19 10:43:25;;;;;;;;;9.00;8.00;;;;;32.77;33.97;100743.84;146610;622;46008;-71
2021/09/19 10:45:58;;;;;;;;;8.33;6.67;;;;;32.84;34.64;100735.50;146603;616;46019;-71
2021/09/19 10:48:34;;;;;;;;;5.67;5.00;;;;;32.99;33.66;100741.19;146607;580;46916;-70
2021/09/19 10:51:12;;;;;;;;;4.67;4.00;;;;;33.04;31.61;100740.06;146608;608;45910;-70
2021/09/19 10:53:51;;;;;;;;;6.33;5.33;;;;;33.05;32.80;100720.31;146610;691;45019;-70
2021/09/19 10:56:26;;;;;;;;;5.33;4.67;;;;;33.05;32.19;100731.06;146605;597;46018;-70
2021/09/19 10:59:00;;;;;;;;;7.33;4.67;;;;;33.08;32.90;100719.31;146611;672;46008;-70
2021/09/19 11:01:37;;;;;;;;;5.67;4.00;;;;;33.15;33.08;100725.28;146604;569;47020;-71
2021/09/19 11:04:17;;;;;;;;;8.67;6.00;;;;;33.32;33.24;100717.38;146610;576;46008;-69
2021/09/19 11:06:51;;;;;;;;;7.67;5.00;;;;;33.52;32.01;100716.53;146607;569;46020;-68
2021/09/19 11:09:35;;;;;;;;;5.33;5.33;;;;;33.57;31.20;100714.53;146607;628;47012;-69
2021/09/19 11:12:22;;;;;;;;;8.00;5.67;;;;;33.52;32.88;100714.75;146606;640;47010;-69
2021/09/19 11:15:08;;;;;;;;;10.00;6.67;;;;;33.46;30.57;100706.03;146608;574;46018;-69
2021/09/19 11:17:52;;;;;;;;;8.33;6.00;;;;;33.54;33.81;100704.78;146605;570;46010;-69
2021/09/19 11:20:31;;;;;;;;;10.67;6.33;;;;;33.67;31.89;100701.53;146608;569;46018;-69
2021/09/19 11:23:26;;;;;;;;;11.00;7.00;;;;;33.74;32.10;100694.94;146606;599;46010;-72
2021/09/19 11:26:00;;;;;;;;;7.00;4.33;;;;;33.78;31.32;100700.12;146608;574;46017;-71
2021/09/19 11:28:37;;;;;;;;;11.67;5.67;;;;;33.86;31.22;100697.06;146605;564;46018;-70
2021/09/19 11:31:15;;;;;;;;;3.00;3.00;;;;;33.94;29.38;100692.22;146604;672;46031;-71
2021/09/19 11:33:49;;;;;;;;;8.67;5.33;;;;;34.01;31.10;100699.03;146605;616;46018;-69
2021/09/19 11:36:24;;;;;;;;;9.25;7.00;;;;;34.06;30.71;100698.00;146607;572;46018;-70
2021/09/19 11:38:59;;;;;;;;;6.67;6.00;;;;;34.13;30.61;100699.47;146606;579;46010;-69
2021/09/19 11:41:34;;;;;;;;;6.00;3.67;;;;;34.14;29.27;100694.00;146608;630;46018;-71
2021/09/19 11:44:08;;;;;;;;;10.00;5.50;;;;;34.07;29.87;100687.16;146606;612;46010;-72
2021/09/19 11:46:51;;;;;;;;;7.50;5.75;;;;;34.06;29.64;100688.13;146606;570;47010;-71
2021/09/19 11:49:25;;;;;;;;;5.50;4.00;;;;;34.11;27.53;100686.06;146604;624;46032;-72
2021/09/19 11:51:59;;;;;;;;;3.67;3.67;;;;;34.11;27.45;100674.44;146609;595;47010;-71
2021/09/19 11:54:33;;;;;;;;;7.50;4.25;;;;;34.13;29.31;100676.09;146605;703;46010;-71
2021/09/19 11:57:07;;;;;;;;;4.00;3.25;;;;;33.66;29.25;100577.00;146607;609;47008;-71
2021/09/19 11:59:48;;;;;;;;;7.25;5.25;;;;;34.14;27.49;100656.31;146605;705;46020;-70
2021/09/19 12:02:26;;;;;;;;;5.00;3.00;;;;;34.00;27.32;100656.09;146608;578;47008;-70
2021/09/19 12:05:00;;;;;;;;;7.00;5.00;;;;;33.91;28.29;100643.06;146606;610;46018;-71